This is the latest recevied weather packets stored in our database for station/object N4AR. If no packets are shown the sender has not sent any weather packets the latest 10 day(s).
| Time | Temp. | Humidity | Pressure | Rain* | Wind** | Luminosity | Snow |
|---|---|---|---|---|---|---|---|
| 1777673357 | 17.78° C | 58% | 1012.5 hPa | 0 mm | - | 182 W/m² | - |
| 1777673055 | 17.78° C | 58% | 1012.5 hPa | 0 mm | - | 179 W/m² | - |
| 1777672750 | 17.78° C | 58% | 1012.5 hPa | 0 mm | - | 255 W/m² | - |
| 1777672447 | 17.78° C | 57% | 1012.6 hPa | 0 mm | - | 153 W/m² | - |
| 1777672143 | 18.89° C | 55% | 1012.4 hPa | 0 mm | - | 233 W/m² | - |
| 1777671843 | 18.89° C | 51% | 1012.5 hPa | 0 mm | - | 187 W/m² | - |
| 1777671539 | 18.33° C | 50% | 1012.6 hPa | 0 mm | - | 360 W/m² | - |
| 1777671236 | 18.89° C | 46% | 1012.6 hPa | 0 mm | - | 290 W/m² | - |
| 1777670931 | 18.89° C | 47% | 1012.6 hPa | 0 mm | - | 435 W/m² | - |
| 1777670628 | 18.89° C | 46% | 1012.8 hPa | 0 mm | - | 384 W/m² | - |
| 1777670325 | 18.89° C | 48% | 1012.6 hPa | 0 mm | - | 428 W/m² | - |
| 1777670023 | 18.33° C | 49% | 1012.9 hPa | 0 mm | - | 330 W/m² | - |
| 1777669720 | 17.78° C | 50% | 1012.9 hPa | 0 mm | - | 544 W/m² | - |
| 1777669417 | 19.44° C | 49% | 1012.8 hPa | 0 mm | - | 422 W/m² | - |
| 1777669113 | 19.44° C | 47% | 1012.7 hPa | 0 mm | - | 473 W/m² | - |
| 1777668810 | 20° C | 45% | 1012.7 hPa | 0 mm | - | 508 W/m² | - |
| 1777668507 | 20° C | 45% | 1012.8 hPa | 0 mm | - | 485 W/m² | - |
| 1777668203 | 20° C | 44% | 1012.7 hPa | 0 mm | - | 621 W/m² | - |
| 1777667900 | 20° C | 43% | 1012.9 hPa | 0 mm | - | 531 W/m² | - |
| 1777667597 | 19.44° C | 44% | 1012.9 hPa | 0 mm | - | 698 W/m² | - |
| 1777667294 | 19.44° C | 43% | 1013 hPa | 0 mm | - | 684 W/m² | - |
| 1777666991 | 19.44° C | 41% | 1013.2 hPa | 0 mm | - | 370 W/m² | - |
| 1777666688 | 20° C | 42% | 1013.2 hPa | 0 mm | - | 599 W/m² | - |
| 1777666384 | 19.44° C | 40% | 1013 hPa | 0 mm | - | 698 W/m² | - |
| 1777666081 | 19.44° C | 42% | 1013.4 hPa | 0 mm | - | 394 W/m² | - |
* Rain latest hour (hover to see other rain measurements)
** Current wind speed in m/s (hover to see current wind gust speed)